Página principal
METAR-TAF:

METAR-TAF

Aeroportos :

Ouagadougou, Burkina Faso

latitude: 12-21N, longitude: 001-31W, altura: 316 m

Observação actual do tempo

O boletim foi feito há 1 hora e 27 minutos, às 22:00 UTC
Vento calmo
Temperatura 24°C
Humidade 34%
Pressão 1014 hPa
Visibilidade: 8000 m

METAR: DFFD 122200Z 00000KT 8000 NSC 24/07 Q1014 NOSIG

Hora: 23:27 (23:27 UTC)

Previsão

O boletim foi feito há 6 horas e 27 minutos, às 17:00 UTC
Previsão válida de 12 às 18 UTC a 13 às 24 UTC
Vento 8 kt de es-sudeste
Visibilidade: 8000 m
Temporariamente
de 12 às 18 UTC a 12 às 20 UTC
Visibilidade: 4000 m
bruma
Temporariamente
de 13 às 06 UTC a 13 às 10 UTC
Visibilidade: 3500 m
bruma

TAF: DFFD 121700Z 1218/1324 12008KT 8000 NSC TEMPO 1218/1220 4000 HZ TEMPO 1306/1310 3500 HZ

Observações e previsões do tempo de mais de 4000 aeroportos (mensagens METAR e TAF).

As estações disponíveis são os pontos amarelos e vermelhos sobre o mapa.

Mova o rato sobre o mapa para ver o nome da estação.

Depois clique no ponto para visualizar as observações e previsões meteorológicas.

Para alterar o mapa : clique nos botões verdes com uma cruz preta para aumentar o zoom; no botão verde com uma pitada de zoom; ou nas setas verdes para mapas adjacentes.


METAR-TAF: